Time;durP1;ratioP1;P1;durP2;ratioP2;P2;SDS_P1;SDS_P2;PMS_P1;PMS_P2;Temp;Humidity;BMP_temperature;BMP_pressure;BME280_temperature;BME280_humidity;BME280_pressure;Samples;Min_cycle;Max_cycle;Signal;HPM_P1;HPM_P2
2022/08/08 00:00:42;;;;;;;5.50;2.97;;;15.20;99.90;;;;;;5005318;28;20042;-59
2022/08/08 00:03:18;;;;;;;4.75;2.80;;;15.10;99.90;;;;;;5005094;28;20045;-57
2022/08/08 00:05:48;;;;;;;6.40;3.28;;;15.00;99.90;;;;;;5002862;28;20536;-58
2022/08/08 00:08:16;;;;;;;6.97;3.15;;;15.00;99.90;;;;;;4991932;28;20452;-58
2022/08/08 00:11:19;;;;;;;8.43;3.20;;;14.90;99.90;;;;;;5004995;28;20096;-58
2022/08/08 00:14:12;;;;;;;6.50;2.90;;;14.90;99.90;;;;;;5004269;28;20057;-59
2022/08/08 00:16:56;;;;;;;5.70;3.20;;;14.90;99.90;;;;;;5004508;28;20405;-59
2022/08/08 00:19:29;;;;;;;5.68;3.13;;;14.80;99.90;;;;;;5004994;28;20109;-58
2022/08/08 00:22:19;;;;;;;6.93;3.28;;;14.80;99.90;;;;;;5004947;28;20370;-57
2022/08/08 00:24:49;;;;;;;5.60;2.92;;;14.90;99.90;;;;;;5004616;28;20385;-58
2022/08/08 00:27:18;;;;;;;8.02;2.83;;;15.00;99.90;;;;;;5004430;28;20042;-59
2022/08/08 00:29:54;;;;;;;6.22;3.55;;;15.00;99.90;;;;;;5002406;28;20058;-58
2022/08/08 00:32:55;;;;;;;8.80;3.50;;;15.00;99.90;;;;;;5004488;28;20034;-57
2022/08/08 00:35:35;;;;;;;6.20;3.55;;;14.80;99.90;;;;;;5000953;28;20054;-58
2022/08/08 00:38:30;;;;;;;5.05;3.50;;;14.70;99.90;;;;;;5004685;28;20041;-59
2022/08/08 00:41:19;;;;;;;7.28;3.20;;;14.60;99.90;;;;;;5004895;28;20049;-58
2022/08/08 00:43:58;;;;;;;5.78;3.58;;;14.60;99.90;;;;;;5003948;28;20058;-62
2022/08/08 00:46:55;;;;;;;8.30;4.13;;;14.60;99.90;;;;;;5004281;28;20048;-59
2022/08/08 00:49:44;;;;;;;6.22;4.00;;;14.60;99.90;;;;;;5007992;28;20049;-58
2022/08/08 00:52:22;;;;;;;6.88;3.83;;;14.90;99.90;;;;;;5008201;28;20463;-59
2022/08/08 00:55:06;;;;;;;10.40;4.38;;;14.60;99.90;;;;;;5008307;28;20457;-56
2022/08/08 00:58:03;;;;;;;9.68;4.15;;;14.50;99.90;;;;;;5007714;28;20045;-59
2022/08/08 01:00:58;;;;;;;7.68;4.20;;;14.50;99.90;;;;;;5007836;28;20065;-60
2022/08/08 01:04:02;;;;;;;7.18;3.72;;;14.40;99.90;;;;;;5007750;28;20757;-58
2022/08/08 01:06:55;;;;;;;7.97;4.03;;;14.30;99.90;;;;;;5001702;28;20397;-60
2022/08/08 01:09:58;;;;;;;5.38;3.70;;;14.30;99.90;;;;;;5002878;28;20066;-58
2022/08/08 01:12:45;;;;;;;5.88;3.97;;;14.40;99.90;;;;;;4987533;28;20086;-58
2022/08/08 01:15:50;;;;;;;7.88;4.13;;;14.30;99.90;;;;;;4988276;28;20043;-58
2022/08/08 01:18:34;;;;;;;8.63;4.10;;;14.20;99.90;;;;;;4988359;28;20068;-59
2022/08/08 01:21:31;;;;;;;7.37;4.47;;;14.10;99.90;;;;;;4988108;28;20061;-58
2022/08/08 01:24:18;;;;;;;7.85;4.50;;;14.00;99.90;;;;;;4983630;28;20420;-59
2022/08/08 01:27:21;;;;;;;10.00;4.22;;;14.00;99.90;;;;;;4987800;28;20042;-58
2022/08/08 01:30:25;;;;;;;7.43;5.03;;;14.00;99.90;;;;;;4987898;28;20061;-59
2022/08/08 01:33:28;;;;;;;11.60;5.72;;;14.00;99.90;;;;;;4988019;28;20092;-58
2022/08/08 01:35:59;;;;;;;9.10;5.93;;;13.90;99.90;;;;;;4987838;28;20057;-58
2022/08/08 01:38:50;;;;;;;8.00;5.45;;;13.80;99.90;;;;;;4987636;28;20059;-58
2022/08/08 01:41:30;;;;;;;9.55;5.72;;;13.90;99.90;;;;;;4987815;28;20057;-59
2022/08/08 01:44:04;;;;;;;10.48;6.07;;;14.00;99.90;;;;;;4987004;28;20054;-58
2022/08/08 01:46:42;;;;;;;8.02;5.57;;;13.90;99.90;;;;;;4987093;28;20096;-58
2022/08/08 01:49:13;;;;;;;10.60;5.78;;;14.00;99.90;;;;;;4987634;28;20125;-58
2022/08/08 01:52:03;;;;;;;9.88;5.65;;;13.90;99.90;;;;;;4987455;28;20065;-58
2022/08/08 01:55:08;;;;;;;6.43;5.57;;;13.80;99.90;;;;;;4987264;28;20089;-58
2022/08/08 01:58:08;;;;;;;7.15;5.82;;;13.70;99.90;;;;;;4987048;28;20165;-59
2022/08/08 02:00:34;;;;;;;8.27;6.00;;;13.70;99.90;;;;;;4987060;28;20084;-60
2022/08/08 02:03:08;;;;;;;10.98;6.40;;;13.70;99.90;;;;;;4987113;28;20521;-59
2022/08/08 02:05:37;;;;;;;10.60;6.32;;;13.60;99.90;;;;;;4988120;28;20038;-58
2022/08/08 02:08:10;;;;;;;11.30;6.50;;;13.50;99.90;;;;;;4997742;28;20477;-59
2022/08/08 02:10:41;;;;;;;10.68;6.75;;;13.50;99.90;;;;;;5001100;28;20054;-59
2022/08/08 02:13:28;;;;;;;9.88;6.85;;;13.60;99.90;;;;;;5005672;28;20061;-55
2022/08/08 02:16:14;;;;;;;9.45;6.70;;;13.60;99.90;;;;;;5006812;28;20049;-57
2022/08/08 02:18:49;;;;;;;10.02;6.75;;;13.60;99.90;;;;;;5006679;28;20046;-58
2022/08/08 02:24:38;;;;;;;9.23;6.18;;;13.50;99.90;;;;;;5006692;28;20783;-58
2022/08/08 02:27:15;;;;;;;7.78;6.18;;;13.50;99.90;;;;;;5006516;28;20053;-58
2022/08/08 02:29:56;;;;;;;9.68;6.55;;;13.40;99.90;;;;;;5006317;28;20126;-58
2022/08/08 02:32:52;;;;;;;10.65;7.85;;;13.90;99.90;;;;;;5004874;28;20125;-58
2022/08/08 02:35:38;;;;;;;12.10;7.28;;;13.50;99.90;;;;;;5005803;28;20508;-58
2022/08/08 02:38:15;;;;;;;13.20;8.43;;;13.50;99.90;;;;;;5005117;28;20092;-59
2022/08/08 02:40:55;;;;;;;12.82;9.32;;;13.40;99.90;;;;;;5006010;28;20050;-59
2022/08/08 02:43:42;;;;;;;12.63;9.20;;;13.40;99.90;;;;;;5005228;28;20085;-58
2022/08/08 02:46:37;;;;;;;11.65;8.85;;;13.50;99.90;;;;;;5006045;28;20052;-59
2022/08/08 02:49:21;;;;;;;16.03;9.90;;;13.40;99.90;;;;;;4974845;28;20093;-59
2022/08/08 02:52:14;;;;;;;15.30;10.45;;;13.50;99.90;;;;;;5006175;28;20417;-59
2022/08/08 02:55:02;;;;;;;13.82;10.82;;;13.50;99.90;;;;;;5004684;28;20405;-58
2022/08/08 02:58:05;;;;;;;13.50;10.40;;;13.60;99.90;;;;;;5004853;28;20045;-58
2022/08/08 03:00:49;;;;;;;18.08;10.80;;;13.60;99.90;;;;;;5006031;28;20061;-59
2022/08/08 03:03:43;;;;;;;12.93;10.47;;;13.60;99.90;;;;;;5005515;28;20038;-58
2022/08/08 03:06:28;;;;;;;13.45;9.95;;;13.50;99.90;;;;;;5001165;28;20057;-59
2022/08/08 03:09:02;;;;;;;14.38;9.48;;;13.50;99.90;;;;;;4985931;28;20457;-59
2022/08/08 03:11:57;;;;;;;12.10;9.27;;;13.50;99.90;;;;;;4985284;28;20457;-59
2022/08/08 03:14:37;;;;;;;13.02;9.63;;;13.50;99.90;;;;;;4978200;28;20047;-58
2022/08/08 03:17:06;;;;;;;13.68;9.32;;;13.50;99.90;;;;;;4985054;28;20100;-58
2022/08/08 03:20:05;;;;;;;14.60;9.63;;;13.60;99.90;;;;;;4986225;28;20043;-58
2022/08/08 03:22:32;;;;;;;13.35;9.43;;;13.70;99.90;;;;;;4985742;28;20046;-58
2022/08/08 03:25:04;;;;;;;14.10;9.50;;;13.80;99.90;;;;;;4985726;28;20139;-59
2022/08/08 03:27:51;;;;;;;11.30;9.07;;;13.80;99.90;;;;;;4984630;28;20053;-58
2022/08/08 03:30:19;;;;;;;12.10;8.65;;;13.70;99.90;;;;;;4985779;28;20386;-55
2022/08/08 03:35:30;;;;;;;12.93;9.45;;;13.60;99.90;;;;;;4985636;28;20054;-58
2022/08/08 03:38:00;;;;;;;12.60;9.18;;;13.60;99.90;;;;;;4985517;28;20073;-58
2022/08/08 03:40:25;;;;;;;12.43;9.50;;;13.60;99.90;;;;;;4985594;28;20088;-59
2022/08/08 03:42:51;;;;;;;12.68;8.77;;;13.70;99.90;;;;;;4984552;28;20046;-58
2022/08/08 03:45:20;;;;;;;14.85;9.00;;;13.70;99.90;;;;;;4985554;28;20486;-57
2022/08/08 03:48:03;;;;;;;10.45;9.32;;;13.70;99.90;;;;;;4985506;28;20050;-59
2022/08/08 03:50:31;;;;;;;14.23;9.85;;;13.70;99.90;;;;;;4984722;28;20057;-59
2022/08/08 03:53:11;;;;;;;12.13;9.30;;;13.70;99.90;;;;;;4985320;28;20050;-58
2022/08/08 03:55:38;;;;;;;11.00;8.90;;;13.70;99.90;;;;;;4985545;28;20054;-58
2022/08/08 03:58:04;;;;;;;12.10;9.38;;;13.70;99.90;;;;;;4983223;28;20046;-58
2022/08/08 04:00:30;;;;;;;13.48;9.63;;;13.70;99.90;;;;;;4984886;28;20505;-58
2022/08/08 04:03:02;;;;;;;13.05;9.18;;;13.80;99.90;;;;;;4984857;28;20101;-58
2022/08/08 04:05:29;;;;;;;10.30;9.18;;;13.80;99.90;;;;;;4984765;28;20085;-58
2022/08/08 04:07:56;;;;;;;14.07;9.55;;;13.80;99.90;;;;;;4995581;28;20183;-59
2022/08/08 04:10:21;;;;;;;12.75;9.25;;;13.80;99.90;;;;;;4983510;28;20058;-59
2022/08/08 04:12:47;;;;;;;10.90;9.38;;;13.90;99.90;;;;;;4984536;28;20065;-59
2022/08/08 04:15:13;;;;;;;10.85;8.32;;;13.90;99.90;;;;;;4985070;28;20405;-58
2022/08/08 04:17:38;;;;;;;12.38;8.95;;;13.90;99.90;;;;;;4985000;28;20038;-58
2022/08/08 04:20:05;;;;;;;14.82;10.05;;;13.90;99.90;;;;;;4985174;28;20088;-58
2022/08/08 04:22:31;;;;;;;11.93;9.15;;;13.90;99.90;;;;;;4986255;28;20065;-57
2022/08/08 04:24:57;;;;;;;13.32;9.48;;;13.90;99.90;;;;;;4987860;28;20276;-58
2022/08/08 04:27:23;;;;;;;13.35;9.95;;;14.00;99.90;;;;;;4988444;28;20034;-59
2022/08/08 04:29:49;;;;;;;11.50;9.15;;;14.00;99.90;;;;;;4989007;28;20524;-58
2022/08/08 04:32:15;;;;;;;13.13;9.85;;;14.00;99.90;;;;;;4988898;28;20293;-59
2022/08/08 04:34:41;;;;;;;15.30;10.35;;;14.00;99.90;;;;;;4989054;28;20128;-59
2022/08/08 04:37:07;;;;;;;12.20;10.40;;;13.90;99.90;;;;;;4989106;28;20042;-55
2022/08/08 04:39:33;;;;;;;11.48;9.65;;;13.90;99.90;;;;;;4988986;28;20054;-60
2022/08/08 04:41:58;;;;;;;13.50;10.07;;;14.00;99.90;;;;;;4987763;28;20038;-58
2022/08/08 04:44:24;;;;;;;12.57;9.82;;;14.10;99.90;;;;;;4988624;28;20081;-58
2022/08/08 04:46:50;;;;;;;13.57;9.75;;;14.00;99.90;;;;;;4988460;28;20066;-58
2022/08/08 04:49:16;;;;;;;11.68;9.82;;;14.10;99.90;;;;;;4988363;28;20381;-58
2022/08/08 04:51:41;;;;;;;10.88;9.73;;;14.20;99.90;;;;;;4988805;28;20717;-59
2022/08/08 04:54:07;;;;;;;13.30;10.23;;;14.20;99.90;;;;;;4986929;28;20050;-57
2022/08/08 04:56:33;;;;;;;11.45;9.15;;;14.30;99.90;;;;;;4988798;28;20038;-58
2022/08/08 04:58:58;;;;;;;10.18;8.75;;;14.30;99.90;;;;;;4987782;28;20517;-59
2022/08/08 05:01:24;;;;;;;11.23;8.38;;;14.30;99.90;;;;;;4988252;28;20394;-58
2022/08/08 05:03:50;;;;;;;11.52;8.70;;;14.30;99.90;;;;;;4987799;28;20050;-58
2022/08/08 05:06:15;;;;;;;9.65;8.15;;;14.40;99.90;;;;;;4990515;28;20045;-58
2022/08/08 05:08:42;;;;;;;13.05;8.82;;;14.40;99.90;;;;;;4997014;28;20057;-58
2022/08/08 05:11:12;;;;;;;9.15;8.20;;;14.50;99.90;;;;;;4988144;28;20444;-58
2022/08/08 05:13:38;;;;;;;10.93;8.82;;;14.50;99.90;;;;;;4987217;28;20050;-58
2022/08/08 05:16:04;;;;;;;10.52;8.13;;;14.50;99.90;;;;;;4988535;28;20053;-59
2022/08/08 05:18:32;;;;;;;11.77;8.68;;;14.50;99.90;;;;;;4988231;28;20042;-58
2022/08/08 05:20:58;;;;;;;11.07;8.73;;;14.60;99.90;;;;;;4988257;28;20045;-59
2022/08/08 05:23:24;;;;;;;10.05;7.72;;;14.50;99.90;;;;;;4986753;28;20063;-58
2022/08/08 05:25:50;;;;;;;12.23;8.00;;;14.60;99.90;;;;;;4987620;28;20460;-59
2022/08/08 05:28:16;;;;;;;16.95;8.00;;;14.60;99.90;;;;;;4987485;28;20050;-59
2022/08/08 05:30:42;;;;;;;11.77;7.32;;;14.60;99.90;;;;;;4988077;28;20046;-57
2022/08/08 05:33:08;;;;;;;12.82;7.65;;;14.60;99.90;;;;;;4987621;28;20050;-58
2022/08/08 05:35:34;;;;;;;10.82;6.75;;;14.70;99.90;;;;;;4988047;28;20541;-58
2022/08/08 05:38:04;;;;;;;11.65;7.22;;;14.80;99.90;;;;;;4987597;28;20062;-58
2022/08/08 05:40:32;;;;;;;8.50;6.45;;;14.80;99.90;;;;;;4987752;28;20374;-58
2022/08/08 05:43:07;;;;;;;11.15;6.70;;;14.90;99.90;;;;;;4986698;28;20056;-58
2022/08/08 05:45:35;;;;;;;10.32;7.03;;;14.90;99.90;;;;;;4987368;28;20425;-58
2022/08/08 05:48:02;;;;;;;10.45;7.07;;;15.00;99.90;;;;;;4987592;28;20073;-59
2022/08/08 05:50:29;;;;;;;10.05;6.68;;;15.10;99.90;;;;;;4987202;28;20535;-58
2022/08/08 05:52:55;;;;;;;11.10;7.00;;;15.10;99.90;;;;;;4987465;28;20097;-57
2022/08/08 05:55:21;;;;;;;10.00;7.10;;;15.20;99.90;;;;;;4986716;28;20050;-59
2022/08/08 05:57:50;;;;;;;8.30;6.70;;;15.30;99.90;;;;;;4986523;28;20043;-57
2022/08/08 06:00:16;;;;;;;9.50;6.70;;;15.40;99.90;;;;;;4987399;28;20038;-59
2022/08/08 06:05:33;;;;;;;11.18;6.80;;;15.40;99.90;;;;;;4987024;28;20057;-58
2022/08/08 06:08:00;;;;;;;8.52;6.15;;;15.50;99.90;;;;;;4996016;28;20046;-58
2022/08/08 06:10:30;;;;;;;10.05;6.35;;;15.60;99.90;;;;;;4986786;28;20081;-58
2022/08/08 06:12:56;;;;;;;10.18;6.25;;;15.70;99.90;;;;;;4986229;28;20137;-59
2022/08/08 06:15:22;;;;;;;10.38;6.22;;;15.70;99.90;;;;;;4987060;28;20484;-58
2022/08/08 06:17:50;;;;;;;7.20;6.22;;;15.80;99.90;;;;;;4986947;28;20521;-59
2022/08/08 06:20:15;;;;;;;11.48;5.97;;;15.90;99.90;;;;;;4987145;28;20053;-58
2022/08/08 06:22:41;;;;;;;11.95;6.90;;;15.90;99.90;;;;;;4986649;28;20042;-58
2022/08/08 06:25:07;;;;;;;11.48;6.22;;;16.00;99.90;;;;;;4986223;28;20151;-58
2022/08/08 06:27:59;;;;;;;10.02;6.03;;;16.00;99.90;;;;;;4986497;28;20393;-59
2022/08/08 06:30:26;;;;;;;10.45;5.60;;;16.10;99.90;;;;;;4986478;28;20429;-58
2022/08/08 06:32:56;;;;;;;7.45;5.30;;;16.20;99.90;;;;;;4985619;28;20504;-58
2022/08/08 06:35:23;;;;;;;9.07;4.97;;;16.20;99.90;;;;;;4986449;28;20488;-58
2022/08/08 06:37:55;;;;;;;11.50;5.40;;;16.30;99.90;;;;;;4986754;28;20281;-58
2022/08/08 06:40:24;;;;;;;7.55;4.72;;;16.50;99.90;;;;;;4985033;28;20073;-59
2022/08/08 06:43:00;;;;;;;9.85;4.88;;;16.70;99.90;;;;;;4984369;28;20046;-58
2022/08/08 06:45:28;;;;;;;9.98;4.72;;;16.70;99.90;;;;;;4985558;28;20165;-58
2022/08/08 06:47:53;;;;;;;13.25;5.13;;;16.90;99.90;;;;;;4986451;28;20445;-58
2022/08/08 06:50:19;;;;;;;9.98;5.03;;;17.20;99.90;;;;;;4984736;28;20042;-58
2022/08/08 06:52:45;;;;;;;8.27;4.80;;;17.40;99.90;;;;;;4986244;28;20049;-58
2022/08/08 06:55:10;;;;;;;9.57;4.80;;;17.50;99.90;;;;;;4986254;28;20050;-58
2022/08/08 06:57:36;;;;;;;8.20;5.10;;;17.50;99.90;;;;;;4985713;28;20061;-59
2022/08/08 07:00:05;;;;;;;11.68;4.97;;;17.50;99.90;;;;;;4986446;28;20045;-58
2022/08/08 07:02:33;;;;;;;10.45;5.22;;;17.50;99.90;;;;;;4986070;28;20425;-58
2022/08/08 07:05:06;;;;;;;10.20;4.50;;;17.70;99.90;;;;;;4986253;28;20050;-58
2022/08/08 07:07:50;;;;;;;11.27;5.00;;;18.20;99.90;;;;;;4997379;28;20095;-58
2022/08/08 07:10:21;;;;;;;15.43;5.32;;;18.90;99.90;;;;;;4984638;28;20555;-58
2022/08/08 07:12:59;;;;;;;7.78;4.13;;;19.30;99.90;;;;;;4985618;28;20681;-58
2022/08/08 07:15:46;;;;;;;9.40;4.38;;;19.00;99.90;;;;;;4985478;28;20038;-58
2022/08/08 07:18:23;;;;;;;10.73;4.18;;;18.80;99.90;;;;;;4986063;28;20054;-58
2022/08/08 07:20:56;;;;;;;7.80;4.10;;;19.00;99.90;;;;;;4986015;28;20046;-58
2022/08/08 07:23:30;;;;;;;16.55;4.45;;;19.00;99.90;;;;;;4985729;28;20105;-57
2022/08/08 07:26:01;;;;;;;7.65;3.90;;;19.10;99.90;;;;;;4985921;28;20137;-58
2022/08/08 07:28:28;;;;;;;8.18;3.58;;;19.30;99.90;;;;;;4984868;28;20066;-58
2022/08/08 07:30:54;;;;;;;8.40;3.10;;;19.70;99.90;;;;;;4985284;28;20129;-58
2022/08/08 07:33:23;;;;;;;7.28;3.03;;;20.20;99.90;;;;;;4985566;28;20050;-58
2022/08/08 07:35:49;;;;;;;5.90;2.50;;;20.60;99.90;;;;;;4985748;28;20050;-58
2022/08/08 07:38:19;;;;;;;8.02;2.67;;;21.10;99.90;;;;;;4985608;28;20050;-58
2022/08/08 07:40:46;;;;;;;5.70;1.90;;;21.60;99.90;;;;;;4985332;28;20047;-59
2022/08/08 07:43:12;;;;;;;7.35;2.05;;;21.70;99.90;;;;;;4984178;28;20073;-58
2022/08/08 07:45:41;;;;;;;7.55;2.17;;;21.70;99.90;;;;;;4984684;28;20042;-58
2022/08/08 07:48:06;;;;;;;5.47;2.00;;;21.40;99.90;;;;;;4985341;28;20051;-55
2022/08/08 07:50:33;;;;;;;6.05;1.85;;;21.50;99.90;;;;;;4984655;28;20108;-57
2022/08/08 07:53:02;;;;;;;5.75;1.98;;;21.90;99.90;;;;;;4984832;28;20042;-58
2022/08/08 07:55:30;;;;;;;6.35;1.70;;;22.30;99.90;;;;;;4984608;28;20038;-57
2022/08/08 07:58:07;;;;;;;4.70;1.73;;;22.40;99.90;;;;;;4984163;28;20046;-57
2022/08/08 08:00:47;;;;;;;5.57;1.60;;;22.60;99.90;;;;;;4984435;28;20134;-58
2022/08/08 08:03:21;;;;;;;4.43;1.60;;;23.00;99.90;;;;;;4984898;28;20571;-58
2022/08/08 08:05:50;;;;;;;7.75;1.90;;;23.00;99.90;;;;;;4986840;28;20104;-58
2022/08/08 08:08:19;;;;;;;6.65;1.90;;;23.40;99.90;;;;;;4991479;28;20125;-58
2022/08/08 08:10:50;;;;;;;4.25;1.67;;;23.20;99.90;;;;;;5003026;28;20050;-59
2022/08/08 08:13:34;;;;;;;4.63;1.10;;;23.50;99.90;;;;;;5003697;28;20057;-59
2022/08/08 08:16:03;;;;;;;4.68;1.33;;;23.30;99.90;;;;;;5003232;28;20088;-58
2022/08/08 08:18:36;;;;;;;6.10;1.23;;;23.10;99.90;;;;;;5004497;28;20058;-58
2022/08/08 08:21:03;;;;;;;4.28;1.13;;;23.30;99.90;;;;;;5003697;28;20046;-58
2022/08/08 08:23:29;;;;;;;3.13;1.27;;;23.50;99.90;;;;;;5001113;28;20053;-58
2022/08/08 08:25:55;;;;;;;3.20;1.20;;;23.00;99.90;;;;;;5001917;28;20124;-58
2022/08/08 08:28:21;;;;;;;4.05;1.10;;;23.00;99.90;;;;;;5002279;28;20590;-58
2022/08/08 08:30:47;;;;;;;3.72;1.17;;;23.30;99.90;;;;;;5004157;28;20092;-58
2022/08/08 08:33:13;;;;;;;3.88;1.35;;;23.50;99.90;;;;;;5004428;28;20068;-58
2022/08/08 08:35:39;;;;;;;8.98;1.15;;;23.40;99.90;;;;;;5003946;28;20153;-58
2022/08/08 08:38:04;;;;;;;3.67;1.13;;;23.70;99.90;;;;;;5003502;28;20076;-58
2022/08/08 08:40:31;;;;;;;3.53;1.10;;;24.20;99.90;;;;;;5004156;28;20045;-59
2022/08/08 08:42:58;;;;;;;5.53;1.35;;;24.30;99.90;;;;;;5002733;28;20050;-59
2022/08/08 08:45:24;;;;;;;7.07;1.23;;;24.40;99.90;;;;;;5003164;28;20038;-59
2022/08/08 08:47:51;;;;;;;3.78;1.20;;;23.90;99.90;;;;;;5004438;28;20607;-59
2022/08/08 08:50:17;;;;;;;5.40;1.33;;;23.40;99.90;;;;;;5004212;28;20073;-57
2022/08/08 08:52:45;;;;;;;4.53;1.02;;;23.00;99.90;;;;;;5004409;28;20077;-59
2022/08/08 08:55:14;;;;;;;3.67;0.95;;;22.60;99.90;;;;;;5004255;28;20042;-58
2022/08/08 08:57:42;;;;;;;3.03;1.05;;;22.40;99.90;;;;;;4985700;28;20064;-58
2022/08/08 09:00:09;;;;;;;4.28;1.30;;;22.30;99.90;;;;;;5004147;28;20041;-59
2022/08/08 09:02:37;;;;;;;3.97;1.23;;;22.10;99.90;;;;;;5004398;28;20103;-60
2022/08/08 09:05:08;;;;;;;4.05;1.42;;;21.90;99.90;;;;;;5004390;28;20409;-59
2022/08/08 09:07:35;;;;;;;5.85;1.90;;;21.70;99.90;;;;;;4996161;28;20042;-60
2022/08/08 09:10:03;;;;;;;2.83;1.25;;;21.50;99.90;;;;;;4987817;28;20049;-58
2022/08/08 09:12:32;;;;;;;4.82;1.50;;;21.30;99.90;;;;;;4987088;28;20147;-59
2022/08/08 09:14:59;;;;;;;6.03;1.80;;;21.20;99.90;;;;;;4988211;28;20092;-59
2022/08/08 09:17:25;;;;;;;5.85;1.30;;;21.20;99.90;;;;;;4987354;28;20050;-58
2022/08/08 09:19:56;;;;;;;4.28;1.13;;;21.00;99.90;;;;;;4988074;28;20401;-58
2022/08/08 09:22:23;;;;;;;4.38;1.55;;;21.10;99.90;;;;;;4987912;28;20046;-58
2022/08/08 09:24:50;;;;;;;4.75;1.55;;;20.80;99.90;;;;;;4987716;28;20696;-56
2022/08/08 09:27:17;;;;;;;4.43;1.40;;;20.90;99.90;;;;;;4986568;28;20050;-57
2022/08/08 09:30:04;;;;;;;4.57;1.42;;;20.80;99.90;;;;;;4987657;28;20445;-57
2022/08/08 09:32:38;;;;;;;7.65;1.40;;;20.80;99.90;;;;;;4987343;28;20038;-57
2022/08/08 09:35:08;;;;;;;3.05;1.25;;;20.80;99.90;;;;;;4988048;28;20141;-57
2022/08/08 09:37:48;;;;;;;5.03;1.70;;;20.90;99.90;;;;;;4987769;28;20077;-57
2022/08/08 09:40:22;;;;;;;6.05;1.73;;;20.90;99.90;;;;;;4987243;28;20038;-57
2022/08/08 09:42:55;;;;;;;3.80;1.50;;;20.90;99.90;;;;;;4986892;28;20042;-57
2022/08/08 09:45:30;;;;;;;3.25;1.48;;;21.00;99.90;;;;;;4987329;28;20046;-58
2022/08/08 09:48:00;;;;;;;6.40;1.83;;;21.00;99.90;;;;;;4985946;28;20121;-57
2022/08/08 09:50:26;;;;;;;4.97;1.63;;;21.10;99.90;;;;;;4987373;28;20850;-57
2022/08/08 09:52:53;;;;;;;3.47;1.27;;;21.10;99.90;;;;;;4987627;28;20057;-57
2022/08/08 09:55:20;;;;;;;3.75;1.35;;;21.20;99.90;;;;;;4986882;28;20042;-56
2022/08/08 09:57:49;;;;;;;3.88;1.60;;;21.30;99.90;;;;;;4985142;28;20072;-57
2022/08/08 10:00:18;;;;;;;5.13;1.60;;;21.30;99.90;;;;;;4986819;28;20046;-53
2022/08/08 10:02:50;;;;;;;3.75;1.42;;;21.30;99.90;;;;;;4986043;28;20397;-53
2022/08/08 10:05:18;;;;;;;4.38;1.40;;;21.40;99.90;;;;;;5002369;28;20056;-54
2022/08/08 10:07:54;;;;;;;3.65;1.60;;;21.40;99.90;;;;;;4997617;28;20397;-53
2022/08/08 10:10:40;;;;;;;3.20;1.63;;;21.60;99.90;;;;;;5004242;28;20081;-54
2022/08/08 10:13:23;;;;;;;7.10;1.58;;;21.90;99.90;;;;;;5005711;28;20093;-53
2022/08/08 10:15:54;;;;;;;5.18;2.00;;;22.10;99.90;;;;;;5005894;28;20436;-52
2022/08/08 10:18:28;;;;;;;5.03;1.80;;;22.60;99.90;;;;;;5005542;28;20046;-52
2022/08/08 10:21:07;;;;;;;7.13;4.18;;;22.90;99.90;;;;;;5004188;28;20469;-53
2022/08/08 10:23:48;;;;;;;4.03;2.60;;;23.10;99.90;;;;;;5000597;28;20089;-54
2022/08/08 10:26:21;;;;;;;6.75;2.78;;;23.20;99.90;;;;;;4985469;28;20054;-53
2022/08/08 10:28:54;;;;;;;5.82;2.70;;;23.40;99.90;;;;;;4985807;28;20042;-54
2022/08/08 10:34:13;;;;;;;3.10;1.25;;;23.20;99.90;;;;;;5005712;28;20061;-53
2022/08/08 10:36:41;;;;;;;4.68;1.60;;;23.30;99.90;;;;;;5004700;28;20392;-53
2022/08/08 10:39:08;;;;;;;2.28;1.00;;;23.20;99.90;;;;;;5005926;28;20049;-55
2022/08/08 10:41:36;;;;;;;2.67;1.20;;;22.70;99.90;;;;;;5005350;28;20050;-54
2022/08/08 10:44:04;;;;;;;4.57;1.13;;;22.40;99.90;;;;;;5005824;28;20081;-54
2022/08/08 10:46:30;;;;;;;3.85;1.00;;;22.10;99.90;;;;;;5004166;28;20524;-52
2022/08/08 10:48:57;;;;;;;1.90;0.80;;;21.90;99.90;;;;;;5005713;28;20551;-53
2022/08/08 10:51:36;;;;;;;2.03;0.93;;;21.90;99.90;;;;;;5005542;28;20520;-54
2022/08/08 10:54:02;;;;;;;3.17;1.20;;;21.70;99.90;;;;;;5006044;28;20034;-54
2022/08/08 10:56:34;;;;;;;4.18;1.05;;;21.60;99.90;;;;;;5005068;28;20045;-53
2022/08/08 10:59:06;;;;;;;2.53;1.10;;;21.70;99.90;;;;;;5005618;28;20046;-53
2022/08/08 11:01:32;;;;;;;5.10;1.30;;;21.60;99.90;;;;;;5005092;28;20057;-54
2022/08/08 11:03:59;;;;;;;3.92;1.20;;;21.40;99.90;;;;;;5005323;28;20049;-54
2022/08/08 11:06:29;;;;;;;4.53;1.33;;;21.20;99.90;;;;;;4997136;28;20111;-54
2022/08/08 11:09:07;;;;;;;4.63;1.20;;;21.20;99.90;;;;;;4993140;28;20050;-54
2022/08/08 11:11:44;;;;;;;2.60;1.10;;;21.30;99.90;;;;;;4984662;28;20062;-54
2022/08/08 11:14:12;;;;;;;2.80;1.40;;;21.30;99.90;;;;;;4985606;28;20054;-54
2022/08/08 11:16:43;;;;;;;3.63;1.20;;;21.30;99.90;;;;;;4985504;28;20180;-53
2022/08/08 11:19:10;;;;;;;3.17;1.20;;;21.30;99.90;;;;;;4985242;28;20046;-53
2022/08/08 11:21:40;;;;;;;4.97;1.42;;;21.20;99.90;;;;;;4986094;28;20068;-52
2022/08/08 11:24:08;;;;;;;4.63;1.30;;;21.20;99.90;;;;;;4986300;28;20401;-54
2022/08/08 11:26:35;;;;;;;3.90;1.42;;;21.20;99.90;;;;;;4984875;28;20038;-52
2022/08/08 11:29:04;;;;;;;4.80;1.42;;;21.20;99.90;;;;;;4985050;28;20068;-53
2022/08/08 11:31:36;;;;;;;4.97;1.20;;;21.10;99.90;;;;;;4984926;28;20133;-54
2022/08/08 11:34:03;;;;;;;4.53;1.42;;;21.10;99.90;;;;;;4985330;28;20100;-54
2022/08/08 11:36:35;;;;;;;2.67;1.20;;;21.10;99.90;;;;;;4983816;28;20034;-54
2022/08/08 11:39:02;;;;;;;2.97;1.20;;;21.20;99.90;;;;;;4983761;28;20090;-53
2022/08/08 11:41:28;;;;;;;4.43;1.52;;;21.20;99.90;;;;;;4983893;28;20050;-52
2022/08/08 11:43:55;;;;;;;5.10;1.45;;;21.10;99.90;;;;;;4984455;28;20108;-53
2022/08/08 11:46:23;;;;;;;4.05;1.25;;;21.20;99.90;;;;;;4984327;28;20054;-54
2022/08/08 11:48:49;;;;;;;4.85;1.50;;;21.30;99.90;;;;;;4984635;28;20046;-59
2022/08/08 11:51:22;;;;;;;4.07;1.38;;;21.30;99.90;;;;;;4985234;28;20042;-50
2022/08/08 11:53:49;;;;;;;4.47;1.30;;;21.30;99.90;;;;;;4985097;28;20050;-51
2022/08/08 11:56:22;;;;;;;4.53;1.52;;;21.40;99.90;;;;;;4984015;28;20050;-50
2022/08/08 11:58:50;;;;;;;5.95;1.60;;;21.40;99.90;;;;;;4984922;28;20042;-53
2022/08/08 12:01:16;;;;;;;5.65;1.30;;;21.40;99.90;;;;;;4984920;28;20042;-50
2022/08/08 12:03:48;;;;;;;4.22;2.05;;;21.30;99.90;;;;;;4984698;28;20046;-52
2022/08/08 12:06:18;;;;;;;4.93;1.40;;;21.40;99.90;;;;;;4986983;28;20054;-53
2022/08/08 12:08:45;;;;;;;3.05;1.30;;;21.50;99.90;;;;;;4993378;28;20050;-53
2022/08/08 12:11:17;;;;;;;5.38;1.30;;;21.50;99.90;;;;;;4983866;28;20505;-53
2022/08/08 12:13:44;;;;;;;4.20;1.30;;;21.60;99.90;;;;;;4984985;28;20121;-54
2022/08/08 12:16:15;;;;;;;4.80;1.85;;;21.70;99.90;;;;;;4984460;28;20034;-52
2022/08/08 12:18:51;;;;;;;9.13;1.60;;;21.70;99.90;;;;;;4984639;28;20069;-52
2022/08/08 12:21:28;;;;;;;5.70;1.38;;;21.80;99.90;;;;;;4984384;28;20465;-52
2022/08/08 12:24:07;;;;;;;3.13;1.23;;;22.00;99.90;;;;;;4984496;28;20046;-52
2022/08/08 12:26:38;;;;;;;5.90;1.33;;;22.10;99.90;;;;;;4984356;28;20074;-52
2022/08/08 12:29:22;;;;;;;3.72;1.10;;;22.30;99.90;;;;;;4985293;28;20141;-52
2022/08/08 12:32:12;;;;;;;6.90;1.67;;;22.40;99.90;;;;;;4984607;28;20050;-53
2022/08/08 12:34:55;;;;;;;3.72;1.30;;;22.50;99.90;;;;;;4984680;28;20046;-52
2022/08/08 12:37:28;;;;;;;2.78;1.10;;;22.50;99.90;;;;;;4984754;28;20053;-54
2022/08/08 12:39:54;;;;;;;2.15;1.00;;;22.60;99.90;;;;;;4984598;28;20327;-52
2022/08/08 12:42:20;;;;;;;3.63;1.30;;;22.60;99.90;;;;;;4982446;28;20054;-54
2022/08/08 12:44:45;;;;;;;5.15;1.13;;;22.60;99.90;;;;;;4986970;28;20493;-51
2022/08/08 12:47:14;;;;;;;2.42;1.10;;;22.80;99.90;;;;;;4988264;28;20050;-52
2022/08/08 12:49:43;;;;;;;3.08;1.05;;;22.70;99.90;;;;;;4986885;28;20035;-63
2022/08/08 12:52:19;;;;;;;3.50;1.20;;;22.80;99.90;;;;;;4988314;28;20046;-56
2022/08/08 12:54:45;;;;;;;4.60;1.20;;;22.90;99.90;;;;;;5002521;28;20157;-57
2022/08/08 12:57:19;;;;;;;4.32;1.10;;;22.70;99.90;;;;;;4987347;28;20050;-56
2022/08/08 12:59:52;;;;;;;2.38;0.82;;;22.60;99.90;;;;;;4988295;28;20117;-58
2022/08/08 13:02:24;;;;;;;3.50;1.27;;;22.70;99.90;;;;;;4987626;28;20370;-57
2022/08/08 13:04:51;;;;;;;3.83;0.90;;;22.60;99.90;;;;;;4988350;28;20042;-57
2022/08/08 13:07:17;;;;;;;1.73;0.90;;;22.50;99.90;;;;;;4997436;28;20064;-56
2022/08/08 13:09:56;;;;;;;3.08;0.90;;;22.50;99.90;;;;;;4987985;28;20046;-59
2022/08/08 13:12:31;;;;;;;4.03;1.05;;;22.30;99.90;;;;;;4990612;28;20137;-57
2022/08/08 13:14:58;;;;;;;2.95;1.15;;;22.50;99.90;;;;;;4989134;28;20484;-57
2022/08/08 13:17:26;;;;;;;3.95;1.13;;;22.60;99.90;;;;;;4989052;28;20131;-57
2022/08/08 13:19:53;;;;;;;4.30;1.10;;;22.50;99.90;;;;;;4991486;28;20047;-57
2022/08/08 13:22:20;;;;;;;5.75;1.20;;;22.40;99.90;;;;;;4990868;28;20088;-56
2022/08/08 13:24:45;;;;;;;4.22;1.00;;;22.50;99.90;;;;;;4991130;28;20225;-57